createdAt,value
2023-05-13T00:00:35.195Z,43.63
2023-05-13T00:03:03.693Z,43.66
2023-05-13T00:05:32.001Z,43.55
2023-05-13T00:08:02.116Z,43.46
2023-05-13T00:10:30.529Z,43.64
2023-05-13T00:12:58.860Z,45.34
2023-05-13T00:15:28.194Z,44.59
2023-05-13T00:17:57.334Z,45.60
2023-05-13T00:20:25.647Z,47.32
2023-05-13T00:22:53.949Z,45.01
2023-05-13T00:25:22.430Z,45.39
2023-05-13T00:27:51.231Z,45.73
2023-05-13T00:30:20.114Z,48.03
2023-05-13T00:32:48.704Z,46.52
2023-05-13T00:35:17.029Z,45.37
2023-05-13T00:37:46.942Z,47.65
2023-05-13T00:40:23.233Z,47.04
2023-05-13T00:42:52.276Z,45.68
2023-05-13T00:45:21.521Z,46.21
2023-05-13T00:47:50.192Z,47.46
2023-05-13T00:50:18.518Z,50.57
2023-05-13T00:52:48.706Z,51.93
2023-05-13T00:55:17.087Z,50.29
2023-05-13T00:57:45.366Z,50.74
2023-05-13T01:00:14.202Z,50.08
2023-05-13T01:03:14.538Z,49.10
2023-05-13T01:06:11.095Z,50.82
2023-05-13T01:09:24.135Z,51.09
2023-05-13T01:11:54.418Z,50.02
2023-05-13T01:14:36.028Z,50.19
2023-05-13T01:17:19.068Z,50.11
2023-05-13T01:19:54.621Z,51.01
2023-05-13T01:22:23.105Z,49.41
2023-05-13T01:24:51.569Z,49.84
2023-05-13T01:27:20.909Z,50.04
2023-05-13T01:29:50.573Z,49.17
2023-05-13T01:32:25.009Z,49.26
2023-05-13T01:34:54.036Z,48.55
2023-05-13T01:37:23.216Z,48.60
2023-05-13T01:39:52.139Z,47.62
2023-05-13T01:42:20.835Z,48.77
2023-05-13T01:44:49.110Z,48.61
2023-05-13T01:47:17.377Z,48.53
2023-05-13T01:49:45.617Z,49.25
2023-05-13T01:52:13.456Z,48.32
2023-05-13T01:54:41.799Z,48.47
2023-05-13T01:57:14.084Z,49.08
2023-05-13T01:59:42.717Z,49.96
2023-05-13T02:02:11.338Z,49.46
2023-05-13T02:04:39.696Z,48.74
2023-05-13T02:07:08.673Z,48.27
2023-05-13T02:09:37.181Z,48.04
2023-05-13T02:12:08.132Z,48.04
2023-05-13T02:14:37.630Z,48.42
2023-05-13T02:17:06.148Z,51.84
2023-05-13T02:19:34.376Z,50.89
2023-05-13T02:22:02.621Z,48.86
2023-05-13T02:24:31.102Z,46.77
2023-05-13T02:27:00.442Z,46.38
2023-05-13T02:29:28.654Z,49.78
2023-05-13T02:31:57.377Z,48.11
2023-05-13T02:34:25.761Z,47.86
2023-05-13T02:36:55.233Z,52.21
2023-05-13T02:39:23.772Z,48.63
2023-05-13T02:41:53.639Z,48.97
2023-05-13T02:44:21.860Z,50.08
2023-05-13T02:46:51.339Z,47.73
2023-05-13T02:49:20.084Z,48.25
2023-05-13T02:51:48.366Z,46.95
2023-05-13T02:54:18.599Z,46.61
2023-05-13T02:56:46.822Z,48.09
2023-05-13T02:59:15.080Z,46.92
2023-05-13T03:01:43.652Z,46.92
2023-05-13T03:04:12.001Z,46.20
2023-05-13T03:06:40.292Z,48.00
2023-05-13T03:09:08.779Z,46.94
2023-05-13T03:11:37.066Z,47.99
2023-05-13T03:14:07.105Z,49.34
2023-05-13T03:16:35.509Z,47.91
2023-05-13T03:19:04.059Z,49.35
2023-05-13T03:21:32.857Z,47.19
2023-05-13T03:24:01.208Z,47.20
2023-05-13T03:26:29.494Z,47.13
2023-05-13T03:28:58.564Z,47.10
2023-05-13T03:31:27.376Z,49.16
2023-05-13T03:33:56.094Z,47.89
2023-05-13T03:36:24.668Z,49.79
2023-05-13T03:38:52.978Z,51.61
2023-05-13T03:41:21.483Z,53.15
2023-05-13T03:43:50.583Z,49.93
2023-05-13T03:46:19.036Z,49.17
2023-05-13T03:48:47.717Z,48.45
2023-05-13T03:51:16.260Z,47.31
2023-05-13T03:53:44.797Z,47.63
2023-05-13T03:56:13.799Z,50.01
2023-05-13T03:58:42.458Z,51.11
2023-05-13T04:01:10.952Z,52.00
2023-05-13T04:03:39.438Z,51.28
2023-05-13T04:06:07.890Z,52.10
2023-05-13T04:08:36.096Z,51.21
2023-05-13T04:11:04.367Z,50.27
2023-05-13T04:13:36.010Z,49.57
2023-05-13T04:16:04.541Z,50.05
2023-05-13T04:18:34.377Z,49.63
2023-05-13T04:21:08.228Z,49.17
2023-05-13T04:23:36.781Z,51.39
2023-05-13T04:26:04.963Z,50.44
2023-05-13T04:28:34.592Z,51.08
2023-05-13T04:31:03.715Z,55.80
2023-05-13T04:33:34.096Z,54.84
2023-05-13T04:36:02.584Z,57.01
2023-05-13T04:38:32.111Z,56.85
2023-05-13T04:41:00.849Z,56.63
2023-05-13T04:43:35.865Z,57.02
2023-05-13T04:46:04.436Z,57.02
2023-05-13T04:48:32.781Z,55.67
2023-05-13T04:51:01.814Z,56.04
2023-05-13T04:53:31.316Z,55.86
2023-05-13T04:56:03.026Z,58.36
2023-05-13T04:58:32.116Z,57.35
2023-05-13T05:01:00.799Z,56.54
2023-05-13T05:03:29.302Z,56.24
2023-05-13T05:05:57.913Z,56.36
2023-05-13T05:08:28.915Z,54.96
2023-05-13T05:10:59.845Z,55.15
2023-05-13T05:13:28.396Z,55.85
2023-05-13T05:15:56.732Z,55.13
2023-05-13T05:18:25.155Z,54.94
2023-05-13T05:20:53.541Z,54.88
2023-05-13T05:23:23.180Z,54.47
2023-05-13T05:26:04.093Z,54.59
2023-05-13T05:28:40.120Z,54.74
2023-05-13T05:31:09.680Z,54.71
2023-05-13T05:33:38.820Z,54.75
2023-05-13T05:36:08.437Z,54.14
2023-05-13T05:38:37.375Z,54.12
2023-05-13T05:41:06.713Z,54.75
2023-05-13T05:43:35.790Z,53.79
2023-05-13T05:46:05.086Z,53.63
2023-05-13T05:48:34.815Z,54.29
2023-05-13T05:51:03.742Z,53.81
2023-05-13T05:53:37.867Z,54.19
2023-05-13T05:56:07.855Z,52.79
2023-05-13T05:58:36.239Z,53.03
2023-05-13T06:01:05.621Z,53.10
2023-05-13T06:03:34.582Z,52.64
2023-05-13T06:06:02.983Z,52.16
2023-05-13T06:08:31.583Z,52.10
2023-05-13T06:11:00.203Z,51.24
2023-05-13T06:13:28.557Z,51.46
2023-05-13T06:15:57.301Z,51.14
2023-05-13T06:18:26.917Z,51.54
2023-05-13T06:20:56.080Z,51.45
2023-05-13T06:23:24.029Z,51.66
2023-05-13T06:25:53.348Z,51.51
2023-05-13T06:28:21.753Z,51.37
2023-05-13T06:30:53.553Z,51.99
2023-05-13T06:33:22.169Z,51.33
2023-05-13T06:35:50.244Z,52.02
2023-05-13T06:38:20.903Z,51.19
2023-05-13T06:40:50.634Z,51.71
2023-05-13T06:43:20.012Z,52.00
2023-05-13T06:45:50.670Z,51.62
2023-05-13T06:48:18.960Z,51.09
2023-05-13T06:50:47.468Z,50.91
2023-05-13T06:53:16.166Z,50.89
2023-05-13T06:55:44.718Z,51.69
2023-05-13T06:58:12.950Z,51.49
2023-05-13T07:00:41.423Z,51.12
2023-05-13T07:03:12.594Z,52.85
2023-05-13T07:05:41.069Z,51.60
2023-05-13T07:08:08.932Z,51.59
2023-05-13T07:10:37.342Z,51.15
2023-05-13T07:13:05.456Z,51.69
2023-05-13T07:15:33.806Z,51.25
2023-05-13T07:18:02.061Z,50.92
2023-05-13T07:20:30.470Z,51.24
2023-05-13T07:22:58.622Z,50.62
2023-05-13T07:25:26.641Z,50.21
2023-05-13T07:27:54.971Z,51.25
2023-05-13T07:30:23.375Z,50.97
2023-05-13T07:32:53.876Z,50.67
2023-05-13T07:35:22.858Z,51.39
2023-05-13T07:37:51.324Z,51.04
2023-05-13T07:40:20.951Z,51.08
2023-05-13T07:42:50.352Z,51.08
2023-05-13T07:45:18.660Z,50.73
2023-05-13T07:48:07.479Z,50.84
2023-05-13T07:50:35.636Z,50.84
2023-05-13T07:53:04.304Z,50.57
2023-05-13T07:55:32.578Z,49.95
2023-05-13T07:58:01.889Z,50.36
2023-05-13T08:00:30.150Z,50.22
2023-05-13T08:03:01.229Z,50.50
2023-05-13T08:05:29.899Z,50.35
2023-05-13T08:08:04.221Z,49.93
2023-05-13T08:10:32.552Z,50.19
2023-05-13T08:13:02.249Z,50.31
2023-05-13T08:15:30.563Z,50.78
2023-05-13T08:18:00.654Z,50.93
2023-05-13T08:20:30.126Z,50.81
2023-05-13T08:22:58.707Z,50.31
2023-05-13T08:25:27.074Z,50.17
2023-05-13T08:27:55.580Z,49.98
2023-05-13T08:30:23.445Z,50.47
2023-05-13T08:32:52.068Z,51.09
2023-05-13T08:35:23.119Z,50.50
2023-05-13T08:37:54.046Z,50.53
2023-05-13T08:40:22.592Z,50.42
2023-05-13T08:42:51.886Z,50.63
2023-05-13T08:45:22.993Z,50.38
2023-05-13T08:47:57.039Z,49.76
2023-05-13T08:50:26.094Z,49.85
2023-05-13T08:52:55.004Z,49.74
2023-05-13T08:55:24.389Z,48.78
2023-05-13T08:57:53.093Z,48.66
2023-05-13T09:00:21.941Z,48.54
2023-05-13T09:02:51.236Z,49.17
2023-05-13T09:05:20.196Z,48.02
2023-05-13T09:07:48.568Z,48.20
2023-05-13T09:10:19.108Z,47.31
2023-05-13T09:12:54.380Z,47.19
2023-05-13T10:14:07.505Z,32.39
2023-05-13T10:16:36.278Z,30.46
2023-05-13T10:19:05.226Z,30.93
2023-05-13T10:21:36.842Z,30.06
2023-05-13T10:24:06.865Z,29.00
2023-05-13T10:26:35.527Z,29.21
2023-05-13T10:29:10.442Z,29.37
2023-05-13T10:31:39.278Z,28.78
2023-05-13T10:34:07.648Z,27.65
2023-05-13T10:37:03.892Z,27.23
2023-05-13T10:40:31.652Z,26.78
2023-05-13T10:43:26.158Z,27.13
2023-05-13T10:46:08.815Z,25.09
2023-05-13T10:48:55.916Z,25.47
2023-05-13T10:51:27.525Z,25.32
2023-05-13T10:53:58.962Z,25.56
2023-05-13T10:56:28.929Z,24.75
2023-05-13T10:59:03.552Z,24.28
2023-05-13T11:01:44.253Z,23.50
2023-05-13T11:04:19.717Z,23.49
2023-05-13T11:06:50.775Z,23.30
2023-05-13T11:09:31.633Z,22.64
2023-05-13T11:12:00.964Z,22.38
2023-05-13T11:14:33.425Z,21.80
2023-05-13T11:17:04.478Z,21.81
2023-05-13T11:19:51.188Z,22.17
2023-05-13T11:22:26.386Z,21.12
2023-05-13T11:25:10.911Z,20.68
2023-05-13T11:27:42.108Z,20.65
2023-05-13T11:30:26.794Z,21.49
2023-05-13T11:32:59.717Z,20.79
2023-05-13T11:35:31.478Z,21.41
2023-05-13T11:38:02.732Z,21.02
2023-05-13T11:40:34.448Z,20.40
2023-05-13T11:43:05.970Z,20.06
2023-05-13T11:45:39.723Z,20.02
2023-05-13T11:48:24.550Z,19.63
2023-05-13T11:50:53.169Z,18.53
2023-05-13T11:53:22.526Z,20.11
2023-05-13T11:55:51.258Z,18.80
2023-05-13T11:58:21.750Z,18.68
2023-05-13T12:00:50.461Z,19.09
2023-05-13T12:03:19.332Z,18.52
2023-05-13T12:05:49.172Z,17.58
2023-05-13T12:08:17.495Z,18.07
2023-05-13T12:10:46.337Z,17.67
2023-05-13T12:13:14.705Z,19.91
2023-05-13T12:15:43.219Z,20.44
2023-05-13T12:18:12.041Z,20.70
2023-05-13T12:20:40.452Z,19.84
2023-05-13T12:23:11.918Z,19.48
2023-05-13T12:25:48.371Z,18.18
2023-05-13T12:28:23.622Z,18.08
2023-05-13T12:31:01.596Z,16.39
2023-05-13T12:33:32.262Z,16.40
2023-05-13T12:36:27.735Z,16.36
2023-05-13T12:39:10.973Z,16.49
2023-05-13T12:41:42.535Z,16.87
2023-05-13T12:44:15.510Z,17.60
2023-05-13T12:46:58.368Z,16.56
2023-05-13T12:49:26.738Z,16.95
2023-05-13T12:51:56.663Z,16.66
2023-05-13T12:54:25.024Z,16.25
2023-05-13T12:56:53.432Z,17.07
2023-05-13T12:59:21.813Z,15.68
2023-05-13T13:01:51.231Z,15.23
2023-05-13T13:04:20.019Z,14.94
2023-05-13T13:06:48.471Z,15.10
2023-05-13T13:09:16.689Z,14.35
2023-05-13T13:11:44.883Z,14.83
2023-05-13T13:14:13.098Z,16.03
2023-05-13T13:16:41.521Z,16.51
2023-05-13T13:19:10.380Z,17.41
2023-05-13T13:21:38.783Z,17.38
2023-05-13T13:24:07.278Z,16.28
2023-05-13T13:26:38.380Z,16.29
2023-05-13T13:29:06.672Z,16.29
2023-05-13T13:31:35.000Z,16.55
2023-05-13T13:34:05.067Z,17.89
2023-05-13T13:36:33.354Z,17.17
2023-05-13T13:39:01.624Z,16.66
2023-05-13T13:41:29.987Z,16.56
2023-05-13T13:43:58.423Z,15.91
2023-05-13T13:46:26.872Z,18.07
2023-05-13T13:48:55.932Z,18.54
2023-05-13T13:51:24.153Z,19.45
2023-05-13T13:53:52.449Z,19.46
2023-05-13T13:56:21.070Z,17.83
2023-05-13T13:58:49.283Z,18.67
2023-05-13T14:01:19.578Z,19.68
2023-05-13T14:03:50.813Z,20.87
2023-05-13T14:06:19.843Z,20.48
2023-05-13T14:08:50.957Z,18.49
2023-05-13T14:11:19.261Z,18.97
2023-05-13T14:13:53.290Z,19.70
2023-05-13T14:16:21.602Z,17.51
2023-05-13T14:18:49.950Z,16.86
2023-05-13T14:21:18.299Z,16.46
2023-05-13T14:23:46.584Z,15.53
2023-05-13T14:26:17.604Z,15.98
2023-05-13T14:28:45.910Z,15.29
2023-05-13T14:31:14.340Z,15.28
2023-05-13T14:33:42.756Z,15.73
2023-05-13T14:36:15.950Z,18.32
2023-05-13T14:38:44.533Z,20.62
2023-05-13T14:41:19.591Z,22.23
2023-05-13T14:43:48.036Z,23.35
2023-05-13T14:46:16.449Z,24.95
2023-05-13T14:48:44.804Z,25.34
2023-05-13T14:51:13.068Z,25.67
2023-05-13T14:53:42.499Z,25.92
2023-05-13T14:56:11.143Z,25.76
2023-05-13T14:58:39.497Z,25.78
2023-05-13T15:01:07.799Z,26.10
2023-05-13T15:03:36.180Z,27.71
2023-05-13T15:06:05.095Z,29.23
2023-05-13T15:08:33.447Z,28.68
2023-05-13T15:11:04.667Z,27.73
2023-05-13T15:13:35.262Z,26.55
2023-05-13T15:16:04.405Z,26.79
2023-05-13T15:18:32.959Z,24.63
2023-05-13T15:21:01.472Z,26.07
2023-05-13T15:23:29.740Z,26.22
2023-05-13T15:25:58.210Z,27.52
2023-05-13T15:28:26.536Z,26.83
2023-05-13T15:30:54.985Z,26.77
2023-05-13T15:33:23.354Z,27.80
2023-05-13T15:35:52.489Z,28.41
2023-05-13T15:38:21.576Z,28.02
2023-05-13T15:40:50.402Z,25.87
2023-05-13T15:43:18.662Z,23.47
2023-05-13T15:45:46.961Z,22.38
2023-05-13T15:48:16.744Z,21.67
2023-05-13T15:50:45.166Z,21.33
2023-05-13T15:53:15.835Z,20.75
2023-05-13T15:55:44.152Z,20.15
2023-05-13T15:58:12.425Z,19.87
2023-05-13T16:00:40.726Z,19.58
2023-05-13T16:03:09.113Z,18.55
2023-05-13T16:05:38.858Z,19.96
2023-05-13T16:08:07.258Z,19.85
2023-05-13T16:10:35.796Z,21.36
2023-05-13T16:13:04.453Z,22.60
2023-05-13T16:15:32.865Z,24.85
2023-05-13T16:18:02.070Z,26.12
2023-05-13T16:20:30.638Z,27.19
2023-05-13T16:22:59.307Z,28.31
2023-05-13T16:25:27.562Z,28.07
2023-05-13T16:27:56.605Z,28.11
2023-05-13T16:30:25.051Z,28.64
2023-05-13T16:32:54.469Z,28.63
2023-05-13T16:35:24.024Z,28.41
2023-05-13T16:37:52.378Z,28.32
2023-05-13T16:40:21.951Z,30.08
2023-05-13T16:42:50.519Z,29.06
2023-05-13T16:45:18.801Z,29.26
2023-05-13T16:47:47.111Z,29.07
2023-05-13T16:50:15.868Z,28.91
2023-05-13T16:52:44.358Z,28.61
2023-05-13T16:55:13.130Z,28.39
2023-05-13T16:57:41.439Z,28.80
2023-05-13T17:00:10.515Z,28.94
2023-05-13T17:02:38.936Z,28.91
2023-05-13T17:05:08.004Z,28.80
2023-05-13T17:07:36.466Z,28.33
2023-05-13T17:10:05.189Z,28.98
2023-05-13T17:12:33.555Z,28.92
2023-05-13T17:15:01.829Z,29.13
2023-05-13T17:17:30.506Z,28.87
2023-05-13T17:19:58.867Z,28.52
2023-05-13T17:22:27.146Z,28.25
2023-05-13T17:24:56.056Z,28.37
2023-05-13T17:27:24.380Z,28.77
2023-05-13T17:29:53.013Z,29.01
2023-05-13T17:32:22.239Z,29.02
2023-05-13T17:34:50.539Z,29.19
2023-05-13T17:37:18.903Z,28.68
2023-05-13T17:39:50.063Z,29.17
2023-05-13T17:42:18.387Z,27.41
2023-05-13T17:44:46.675Z,27.92
2023-05-13T17:47:15.265Z,27.75
2023-05-13T17:49:43.531Z,27.48
2023-05-13T17:52:11.829Z,27.19
2023-05-13T17:54:40.180Z,27.61
2023-05-13T17:57:10.944Z,27.80
2023-05-13T17:59:39.563Z,28.00
2023-05-13T18:02:07.890Z,28.32
2023-05-13T18:04:36.298Z,28.60
2023-05-13T18:07:04.665Z,29.32
2023-05-13T18:09:33.069Z,29.01
2023-05-13T18:12:01.409Z,28.89
2023-05-13T18:14:32.319Z,29.14
2023-05-13T18:17:01.236Z,29.19
2023-05-13T18:19:29.425Z,29.51
2023-05-13T18:21:57.721Z,30.19
2023-05-13T18:24:26.176Z,29.90
2023-05-13T18:26:54.520Z,29.93
2023-05-13T18:29:23.158Z,30.11
2023-05-13T18:31:51.406Z,31.90
2023-05-13T18:34:19.646Z,32.03
2023-05-13T18:36:48.103Z,32.12
2023-05-13T18:39:16.431Z,30.75
2023-05-13T18:41:44.734Z,31.30
2023-05-13T18:44:13.004Z,31.18
2023-05-13T18:46:41.274Z,30.98
2023-05-13T18:49:09.507Z,31.12
2023-05-13T18:51:37.960Z,32.06
2023-05-13T18:54:06.336Z,31.61
2023-05-13T18:56:35.035Z,33.12
2023-05-13T18:59:03.649Z,32.10
2023-05-13T19:01:32.047Z,32.40
2023-05-13T19:04:00.590Z,32.35
2023-05-13T19:06:29.092Z,32.45
2023-05-13T19:08:57.392Z,32.53
2023-05-13T19:11:26.054Z,32.44
2023-05-13T19:13:54.353Z,32.97
2023-05-13T19:16:22.768Z,33.09
2023-05-13T19:18:51.105Z,33.41
2023-05-13T19:21:19.624Z,33.67
2023-05-13T19:23:47.876Z,33.68
2023-05-13T19:26:16.173Z,34.05
2023-05-13T19:28:45.386Z,34.17
2023-05-13T19:31:13.810Z,34.86
2023-05-13T19:33:45.378Z,34.59
2023-05-13T19:36:14.494Z,35.21
2023-05-13T19:38:42.796Z,34.88
2023-05-13T19:41:11.048Z,35.20
2023-05-13T19:43:39.272Z,34.58
2023-05-13T19:46:07.592Z,35.00
2023-05-13T19:48:35.888Z,35.49
2023-05-13T19:51:04.284Z,35.62
2023-05-13T19:53:32.642Z,36.10
2023-05-13T19:56:01.519Z,36.08
2023-05-13T19:58:29.817Z,35.50
2023-05-13T20:00:58.282Z,35.57
2023-05-13T20:03:26.752Z,35.69
2023-05-13T20:05:55.055Z,36.08
2023-05-13T20:08:23.582Z,36.12
2023-05-13T20:10:51.929Z,36.01
2023-05-13T20:13:20.204Z,35.92
2023-05-13T20:15:48.506Z,35.67
2023-05-13T20:18:17.081Z,36.43
2023-05-13T20:20:46.894Z,36.90
2023-05-13T20:23:15.260Z,36.97
2023-05-13T20:25:43.517Z,37.08
2023-05-13T20:28:11.821Z,37.21
2023-05-13T20:30:42.936Z,36.56
2023-05-13T20:33:12.544Z,36.61
2023-05-13T20:35:42.818Z,36.30
2023-05-13T20:38:11.466Z,36.18
2023-05-13T20:40:42.997Z,36.46
2023-05-13T20:43:11.216Z,36.70
2023-05-13T20:45:39.810Z,37.03
2023-05-13T20:48:09.162Z,37.15
2023-05-13T20:53:05.651Z,36.66
2023-05-13T20:55:33.913Z,36.63
2023-05-13T20:58:04.704Z,36.90
2023-05-13T21:00:33.174Z,37.53
2023-05-13T21:03:03.941Z,36.90
2023-05-13T21:05:32.326Z,37.47
2023-05-13T21:08:01.104Z,38.72
2023-05-13T21:10:29.396Z,37.84
2023-05-13T21:13:01.688Z,37.48
2023-05-13T21:15:29.951Z,37.58
2023-05-13T21:17:58.408Z,37.37
2023-05-13T21:20:26.767Z,37.20
2023-05-13T21:22:55.092Z,36.94
2023-05-13T21:25:24.514Z,36.69
2023-05-13T21:27:52.859Z,36.44
2023-05-13T21:30:21.568Z,36.81
2023-05-13T21:32:49.911Z,36.73
2023-05-13T21:35:19.238Z,36.88
2023-05-13T21:37:48.772Z,38.15
2023-05-13T21:40:18.869Z,37.12
2023-05-13T21:42:47.168Z,38.11
2023-05-13T21:45:15.441Z,37.45
2023-05-13T21:47:43.903Z,37.18
2023-05-13T21:50:12.360Z,37.32
2023-05-13T21:52:40.641Z,37.90
2023-05-13T21:55:09.669Z,37.46
2023-05-13T21:57:37.990Z,39.01
2023-05-13T22:00:14.912Z,38.20
2023-05-13T22:02:48.589Z,37.33
2023-05-13T22:05:17.211Z,37.45
2023-05-13T22:07:46.298Z,37.26
2023-05-13T22:10:14.642Z,38.50
2023-05-13T22:12:43.088Z,39.20
2023-05-13T22:15:12.523Z,38.81
2023-05-13T22:17:41.079Z,38.05
2023-05-13T22:20:10.123Z,37.93
2023-05-13T22:22:38.407Z,38.28
2023-05-13T22:25:07.069Z,37.82
2023-05-13T22:27:35.536Z,38.29
2023-05-13T22:30:04.201Z,38.97
2023-05-13T22:32:34.362Z,41.16
2023-05-13T22:35:03.102Z,42.28
2023-05-13T22:37:31.277Z,42.94
2023-05-13T22:39:59.551Z,40.75
2023-05-13T22:42:27.868Z,40.06
2023-05-13T22:44:56.094Z,39.73
2023-05-13T22:47:24.436Z,39.14
2023-05-13T22:49:52.743Z,38.97
2023-05-13T22:52:21.052Z,41.69
2023-05-13T22:54:49.443Z,51.76
2023-05-13T22:57:17.778Z,45.99
2023-05-13T22:59:46.114Z,44.76
2023-05-13T23:02:14.480Z,44.45
2023-05-13T23:04:42.668Z,44.28
2023-05-13T23:07:10.899Z,42.50
2023-05-13T23:09:39.186Z,42.12
2023-05-13T23:12:08.090Z,47.91
2023-05-13T23:14:36.421Z,51.18
2023-05-13T23:17:04.757Z,47.81
2023-05-13T23:19:33.020Z,49.25
2023-05-13T23:22:01.384Z,47.75
2023-05-13T23:24:29.656Z,52.52
2023-05-13T23:26:57.883Z,47.37
2023-05-13T23:29:27.658Z,47.29
2023-05-13T23:31:56.116Z,48.71
2023-05-13T23:34:24.435Z,50.23
2023-05-13T23:36:52.661Z,47.47
2023-05-13T23:39:20.905Z,45.15
2023-05-13T23:41:49.352Z,44.34
2023-05-13T23:44:17.623Z,45.27
2023-05-13T23:46:46.177Z,45.40
2023-05-13T23:49:15.475Z,50.81
2023-05-13T23:51:43.797Z,46.87
2023-05-13T23:54:12.112Z,47.58
2023-05-13T23:56:40.375Z,45.82
2023-05-13T23:59:08.668Z,45.58
